X  Kiinni Metar Aviation säätiedot     EHRD Rotterdam The Hague Airport
Lämpötila
21°C Lämpötila
17°C Kastepiste
78% Kosteus



Tuuli
13 KM/T
8 MPH
4 M/S
7 KTS



50°
PI
Nykyiset olosuhteet

Kirkas Kirkas
Paine 1022.92 (hPa) - 30.21 (inHg)
Näkyvyys 6.2 (maili) - 10 (km)
Lentokenttä
Lentokentän koodi EHRD

Sijainti: Rotterdam The Hague Airport
Etäisyys: 14 (km)

Metar:
EHRD 102155Z AUTO 05007KT 9999 NCD 21/17 Q1023 NOSIG

Aika: 10-08-2022 23:55 CEST